INFORMACIÓN METAR y TAF
METAR FOR LGSK
ADDS - METARS form results

(0645 UTC 20 January 2020)
Data provider http://aviationweather.gov/metar/data/
 
Forecast for: LGSK (SKIATHOS ISLAND , GR)
Text: TAF LGSK 200500Z 2006/2015 02012KT 8000 SCT010 BKN025
Forecast period: 0600 to 1500 UTC 20 January 2020
Forecast type: FROM: standard forecast or significant change
Winds: from the NNE (20 degrees) at 14 MPH (12 knots; 6.2 m/s)
Visibility: 5 miles (8 km)
Ceiling: 2500 feet AGL
Clouds: scattered clouds at 1000 feet AGL
broken clouds at 2500 feet AGL
Weather: no significant weather forecast for this period
Text: PROB30
Forecast period: 0900 to 1500 UTC 20 January 2020
Forecast type: TEMPORARY: The following changes expected for less than half the time period
Visibility: 3 miles (5 km)
Ceiling: unknown
Clouds: missing
Weather: RA  (moderate rain)

MAPA DE AEROPUERTO

INFORMACIÓN DE PISTA
Pista 02 Longitud 5341 ft Ancho 98 ft
Elevación 9 ft Umbral desplazado 190 ft Rumbo de pista 19
Pista 20 Longitud 5341 ft Ancho 98 ft
Elevación 54 ft Umbral desplazado 0 ft Rumbo de pista 199

FRECUANCIAS DEL AEROPUERTO
Tipo A/G Nombre SKIATHOS R Frecuencia 563.7 MHZ
Tipo APP Nombre SKIATHOS A Frecuencia 126.05 MHZ
Tipo TWR Nombre SKIATHOS T Frecuencia 126.05 MHZ

RADIO AYUDAS DEL AEROPUERTO
Tipo NDB Nombre Skiathos Frecuencia 326 KHZ